Time;durP1;ratioP1;P1;durP2;ratioP2;P2;SDS_P1;SDS_P2;PMS_P1;PMS_P2;Temp;Humidity;BMP_temperature;BMP_pressure;BME280_temperature;BME280_humidity;BME280_pressure;Samples;Min_cycle;Max_cycle;Signal;HPM_P1;HPM_P2
2022/01/08 00:01:11;;;;;;;;;;;21.70;47.00;;;;;;5117212;28;19924;-50
2022/01/08 00:03:39;;;;;;;;;;;21.70;47.00;;;;;;5117473;28;20375;-54
2022/01/08 00:06:07;;;;;;;;;;;21.70;47.00;;;;;;5115835;28;19934;-54
2022/01/08 00:08:34;;;;;;;;;;;21.70;47.00;;;;;;5116931;28;19924;-58
2022/01/08 00:11:01;;;;;;;;;;;21.70;47.00;;;;;;5116997;28;19923;-54
2022/01/08 00:13:28;;;;;;;;;;;21.70;47.00;;;;;;5116979;28;19935;-60
2022/01/08 00:15:55;;;;;;;;;;;21.70;47.00;;;;;;5118080;28;20305;-58
2022/01/08 00:18:23;;;;;;;;;;;21.70;47.00;;;;;;5116611;28;20014;-58
2022/01/08 00:20:51;;;;;;;;;;;21.70;47.00;;;;;;5116137;28;19923;-53
2022/01/08 00:23:18;;;;;;;;;;;21.70;47.00;;;;;;5116906;28;19924;-57
2022/01/08 00:25:45;;;;;;;;;;;21.70;47.00;;;;;;5116731;28;20030;-51
2022/01/08 00:28:12;;;;;;;;;;;21.70;47.00;;;;;;5116694;28;20384;-56
2022/01/08 00:30:39;;;;;;;;;;;21.70;47.00;;;;;;5098598;28;19923;-58
2022/01/08 00:33:06;;;;;;;;;;;21.70;46.90;;;;;;5116610;28;19971;-57
2022/01/08 00:35:33;;;;;;;;;;;21.70;46.90;;;;;;5115415;28;19924;-57
2022/01/08 00:38:01;;;;;;;;;;;21.70;47.00;;;;;;5116607;28;19924;-57
2022/01/08 00:40:27;;;;;;;;;;;21.70;47.00;;;;;;5116438;28;19924;-59
2022/01/08 00:42:54;;;;;;;;;;;21.70;47.00;;;;;;5116384;28;19930;-56
2022/01/08 00:45:21;;;;;;;;;;;21.70;47.00;;;;;;5117523;28;19930;-56
2022/01/08 00:47:48;;;;;;;;;;;21.70;47.00;;;;;;5116614;28;19947;-58
2022/01/08 00:50:16;;;;;;;;;;;21.70;47.00;;;;;;5115083;27;19928;-59
2022/01/08 00:52:43;;;;;;;;;;;21.70;47.00;;;;;;5116004;28;19923;-59
2022/01/08 00:55:10;;;;;;;;;;;21.70;47.00;;;;;;5116143;28;19931;-52
2022/01/08 00:57:38;;;;;;;;;;;21.70;47.00;;;;;;5116090;28;19931;-57
2022/01/08 01:00:06;;;;;;;;;;;21.70;47.50;;;;;;5081295;28;19924;-52
2022/01/08 01:02:33;;;;;;;;;;;21.70;47.00;;;;;;5115679;28;19923;-57
2022/01/08 01:05:00;;;;;;;;;;;21.70;47.00;;;;;;5116491;28;19972;-49
2022/01/08 01:07:27;;;;;;;;;;;21.70;47.00;;;;;;5115308;28;19931;-57
2022/01/08 01:09:54;;;;;;;;;;;21.70;47.00;;;;;;5115901;28;19924;-56
2022/01/08 01:12:21;;;;;;;;;;;21.70;47.00;;;;;;5115796;28;20375;-58
2022/01/08 01:15:06;;;;;;;;;;;21.70;46.90;;;;;;5115820;28;20022;-50
2022/01/08 01:17:33;;;;;;;;;;;21.70;46.90;;;;;;5098553;28;19976;-49
2022/01/08 01:20:00;;;;;;;;;;;21.60;46.90;;;;;;5115481;28;19924;-53
2022/01/08 01:22:38;;;;;;;;;;;21.60;46.90;;;;;;5114198;28;20387;-55
2022/01/08 01:25:07;;;;;;;;;;;21.60;46.90;;;;;;5115915;28;20287;-54
2022/01/08 01:30:11;;;;;;;;;;;21.60;46.90;;;;;;5115457;28;19923;-52
2022/01/08 01:47:02;;;;;;;;;;;21.60;46.90;;;;;;5052599;28;19924;-58
2022/01/08 01:49:34;;;;;;;;;;;21.60;46.90;;;;;;5052540;28;20398;-56
2022/01/08 01:52:02;;;;;;;;;;;21.60;46.80;;;;;;5063413;28;19925;-54
2022/01/08 01:54:30;;;;;;;;;;;21.60;46.90;;;;;;5072341;28;19939;-55
2022/01/08 01:56:58;;;;;;;;;;;21.60;46.90;;;;;;5072363;28;20015;-56
2022/01/08 01:59:26;;;;;;;;;;;21.60;46.90;;;;;;5072185;28;19924;-57
2022/01/08 02:01:54;;;;;;;;;;;21.60;46.90;;;;;;5072198;28;19925;-53
2022/01/08 02:04:21;;;;;;;;;;;21.60;46.90;;;;;;5072130;28;19960;-58
2022/01/08 02:06:49;;;;;;;;;;;21.60;46.90;;;;;;5069860;28;19925;-58
2022/01/08 02:09:16;;;;;;;;;;;21.60;46.90;;;;;;5055633;28;20315;-58
2022/01/08 02:12:00;;;;;;;;;;;21.60;46.90;;;;;;5072039;28;20420;-49
2022/01/08 02:14:28;;;;;;;;;;;21.60;46.90;;;;;;5071346;28;19925;-57
2022/01/08 02:16:56;;;;;;;;;;;21.60;46.90;;;;;;5072225;28;19925;-53
2022/01/08 02:19:23;;;;;;;;;;;21.60;46.90;;;;;;5071668;28;19975;-50
2022/01/08 02:22:00;;;;;;;;;;;21.60;46.90;;;;;;5083166;28;19930;-54
2022/01/08 02:24:27;;;;;;;;;;;21.60;46.90;;;;;;5114830;28;19928;-55
2022/01/08 02:26:55;;;;;;;;;;;21.60;47.20;;;;;;5115285;28;19924;-56
2022/01/08 02:29:23;;;;;;;;;;;21.60;46.90;;;;;;5115284;28;19977;-58
2022/01/08 02:32:08;;;;;;;;;;;21.60;46.90;;;;;;5114387;28;19973;-50
2022/01/08 02:34:37;;;;;;;;;;;21.60;46.90;;;;;;5114347;28;19924;-51
2022/01/08 02:37:06;;;;;;;;;;;21.60;46.90;;;;;;5113555;28;19923;-53
2022/01/08 02:39:39;;;;;;;;;;;21.60;46.90;;;;;;5114225;28;19924;-52
2022/01/08 02:42:06;;;;;;;;;;;21.60;46.90;;;;;;5114307;28;19931;-57
2022/01/08 02:44:33;;;;;;;;;;;21.60;46.90;;;;;;5114253;28;19930;-51
2022/01/08 02:47:01;;;;;;;;;;;21.60;46.90;;;;;;5114191;28;19931;-57
2022/01/08 02:49:31;;;;;;;;;;;21.60;46.90;;;;;;5114191;28;19927;-50
2022/01/08 02:51:58;;;;;;;;;;;21.60;46.90;;;;;;5113143;28;19930;-57
2022/01/08 02:54:25;;;;;;;;;;;21.60;46.90;;;;;;5096154;28;19924;-56
2022/01/08 02:56:52;;;;;;;;;;;21.60;46.90;;;;;;5114120;28;19924;-58
2022/01/08 02:59:19;;;;;;;;;;;21.60;46.90;;;;;;5114347;28;19969;-59
2022/01/08 03:01:46;;;;;;;;;;;21.60;46.90;;;;;;5114076;28;19924;-50
2022/01/08 03:04:14;;;;;;;;;;;21.60;46.80;;;;;;5114899;28;19937;-58
2022/01/08 03:06:41;;;;;;;;;;;21.60;46.90;;;;;;5112857;28;19934;-49
2022/01/08 03:09:08;;;;;;;;;;;21.60;46.90;;;;;;5114321;28;20267;-54
2022/01/08 03:11:38;;;;;;;;;;;21.60;46.90;;;;;;5114296;28;20349;-47
2022/01/08 03:14:06;;;;;;;;;;;21.60;46.90;;;;;;5113946;28;20280;-52
2022/01/08 03:16:33;;;;;;;;;;;21.60;46.90;;;;;;5113931;28;19930;-53
2022/01/08 03:19:10;;;;;;;;;;;21.60;46.90;;;;;;5113703;28;19928;-56
2022/01/08 03:21:39;;;;;;;;;;;21.50;46.70;;;;;;5112862;28;19928;-58
2022/01/08 03:24:09;;;;;;;;;;;21.50;46.70;;;;;;5134513;28;20293;-58
2022/01/08 03:26:37;;;;;;;;;;;21.50;46.80;;;;;;5136940;27;19935;-58
2022/01/08 03:29:04;;;;;;;;;;;21.60;46.80;;;;;;5138394;27;19930;-57
2022/01/08 03:31:31;;;;;;;;;;;21.50;46.80;;;;;;5138380;27;19930;-51
2022/01/08 03:33:58;;;;;;;;;;;21.50;46.70;;;;;;5139176;27;19923;-55
2022/01/08 03:36:25;;;;;;;;;;;21.50;46.80;;;;;;5138208;27;19923;-52
2022/01/08 03:38:52;;;;;;;;;;;21.50;46.80;;;;;;5117953;27;20325;-49
2022/01/08 03:41:20;;;;;;;;;;;21.50;46.80;;;;;;5117916;28;19923;-57
2022/01/08 03:43:47;;;;;;;;;;;21.50;46.80;;;;;;5117874;28;19935;-47
2022/01/08 03:46:14;;;;;;;;;;;21.50;46.80;;;;;;5117790;28;19959;-49
2022/01/08 03:48:47;;;;;;;;;;;21.50;46.80;;;;;;5117463;28;19924;-51
2022/01/08 03:51:14;;;;;;;;;;;21.50;46.80;;;;;;5117773;28;19973;-57
2022/01/08 03:53:42;;;;;;;;;;;21.50;46.80;;;;;;5115948;27;19924;-51
2022/01/08 03:56:09;;;;;;;;;;;21.50;46.80;;;;;;5117655;28;19923;-54
2022/01/08 03:58:36;;;;;;;;;;;21.50;46.80;;;;;;5117263;28;19924;-50
2022/01/08 04:01:03;;;;;;;;;;;21.50;46.80;;;;;;5117165;28;19931;-52
2022/01/08 04:03:30;;;;;;;;;;;21.50;46.80;;;;;;5118052;28;20002;-47
2022/01/08 04:05:57;;;;;;;;;;;21.50;46.80;;;;;;5117154;28;20090;-49
2022/01/08 04:08:24;;;;;;;;;;;21.50;46.80;;;;;;5115997;28;19931;-46
2022/01/08 04:10:51;;;;;;;;;;;21.50;46.80;;;;;;5117043;28;19923;-57
2022/01/08 04:13:23;;;;;;;;;;;21.50;46.80;;;;;;5116975;28;19935;-58
2022/01/08 04:15:54;;;;;;;;;;;21.50;46.80;;;;;;5117296;28;20363;-58
2022/01/08 04:18:21;;;;;;;;;;;21.50;46.80;;;;;;5116958;28;19924;-56
2022/01/08 04:23:34;;;;;;;;;;;21.50;46.80;;;;;;5115405;27;20405;-55
2022/01/08 04:26:02;;;;;;;;;;;21.50;46.80;;;;;;5116742;28;19924;-52
2022/01/08 04:28:29;;;;;;;;;;;21.50;46.80;;;;;;5117026;28;19924;-56
2022/01/08 04:30:56;;;;;;;;;;;21.50;46.80;;;;;;5116635;28;19924;-53
2022/01/08 04:33:23;;;;;;;;;;;21.50;46.80;;;;;;5116907;28;19923;-56
2022/01/08 04:35:50;;;;;;;;;;;21.50;46.80;;;;;;5116537;28;20379;-52
2022/01/08 04:38:17;;;;;;;;;;;21.50;46.80;;;;;;5114276;28;19924;-54
2022/01/08 04:40:44;;;;;;;;;;;21.50;46.80;;;;;;5116402;28;19928;-54
2022/01/08 04:43:11;;;;;;;;;;;21.50;46.80;;;;;;5116411;28;19924;-53
2022/01/08 04:45:38;;;;;;;;;;;21.50;46.80;;;;;;5116711;28;19928;-54
2022/01/08 04:48:06;;;;;;;;;;;21.50;46.90;;;;;;5098309;28;19924;-55
2022/01/08 04:50:33;;;;;;;;;;;21.50;46.80;;;;;;5116332;28;19923;-56
2022/01/08 04:53:00;;;;;;;;;;;21.50;46.90;;;;;;5114789;28;19930;-57
2022/01/08 04:55:27;;;;;;;;;;;21.40;46.70;;;;;;5116504;28;19928;-55
2022/01/08 04:57:54;;;;;;;;;;;21.50;46.90;;;;;;5116156;28;19931;-55
2022/01/08 05:00:22;;;;;;;;;;;21.50;46.90;;;;;;5116026;28;19923;-57
2022/01/08 05:02:49;;;;;;;;;;;21.40;46.80;;;;;;5116339;28;19923;-51
2022/01/08 05:05:16;;;;;;;;;;;21.40;46.80;;;;;;5115998;28;20383;-54
2022/01/08 05:07:43;;;;;;;;;;;21.40;46.80;;;;;;5114538;28;19931;-54
2022/01/08 05:10:10;;;;;;;;;;;21.40;46.80;;;;;;5115878;28;20394;-57
2022/01/08 05:12:39;;;;;;;;;;;21.40;46.80;;;;;;5115836;28;19924;-52
2022/01/08 05:15:06;;;;;;;;;;;21.40;46.80;;;;;;5115821;28;19931;-52
2022/01/08 05:17:38;;;;;;;;;;;21.40;46.80;;;;;;5116060;28;19923;-56
2022/01/08 05:20:07;;;;;;;;;;;21.40;46.80;;;;;;5095313;28;19928;-58
2022/01/08 05:25:18;;;;;;;;;;;21.40;46.80;;;;;;5094950;28;19931;-50
2022/01/08 05:27:46;;;;;;;;;;;21.40;46.80;;;;;;5095194;28;19931;-55
2022/01/08 05:30:14;;;;;;;;;;;21.40;46.90;;;;;;5095104;28;19973;-52
2022/01/08 05:32:41;;;;;;;;;;;21.40;46.90;;;;;;5095947;28;19924;-56
2022/01/08 05:35:09;;;;;;;;;;;21.40;46.90;;;;;;5077464;28;20060;-56
2022/01/08 05:37:36;;;;;;;;;;;21.40;46.90;;;;;;5094889;28;19924;-49
2022/01/08 05:40:03;;;;;;;;;;;21.40;46.90;;;;;;5110920;28;19924;-51
2022/01/08 05:42:30;;;;;;;;;;;21.40;46.90;;;;;;5115252;28;19924;-53
2022/01/08 05:44:57;;;;;;;;;;;21.40;46.90;;;;;;5115528;28;20283;-52
2022/01/08 05:47:29;;;;;;;;;;;21.40;46.90;;;;;;5115484;28;19947;-58
2022/01/08 05:49:56;;;;;;;;;;;21.40;46.90;;;;;;5115283;28;19976;-50
2022/01/08 05:52:23;;;;;;;;;;;21.40;46.90;;;;;;5114882;28;19930;-55
2022/01/08 05:54:50;;;;;;;;;;;21.40;46.90;;;;;;5113586;28;20377;-50
2022/01/08 05:57:17;;;;;;;;;;;21.40;46.90;;;;;;5115004;28;19924;-53
2022/01/08 05:59:44;;;;;;;;;;;21.40;46.90;;;;;;5097195;28;19927;-50
2022/01/08 06:02:14;;;;;;;;;;;21.30;46.80;;;;;;5114908;28;19924;-50
2022/01/08 06:04:41;;;;;;;;;;;21.30;46.80;;;;;;5115153;28;19924;-59
2022/01/08 06:07:09;;;;;;;;;;;21.30;46.80;;;;;;5114975;28;19950;-52
2022/01/08 06:09:36;;;;;;;;;;;21.40;46.90;;;;;;5101887;28;19931;-58
2022/01/08 06:12:03;;;;;;;;;;;21.40;46.90;;;;;;5094353;28;19931;-51
2022/01/08 06:14:30;;;;;;;;;;;21.30;46.80;;;;;;5094627;28;19924;-53
2022/01/08 06:16:57;;;;;;;;;;;21.30;46.80;;;;;;5094283;28;20003;-49
2022/01/08 06:19:24;;;;;;;;;;;21.30;46.80;;;;;;5109498;28;20326;-58
2022/01/08 06:21:51;;;;;;;;;;;21.30;46.90;;;;;;5114600;28;20298;-55
2022/01/08 06:24:18;;;;;;;;;;;21.30;46.90;;;;;;5113209;28;19928;-55
2022/01/08 06:26:45;;;;;;;;;;;21.30;46.90;;;;;;5114470;28;19923;-55
2022/01/08 06:29:12;;;;;;;;;;;21.30;46.90;;;;;;5114448;28;19931;-55
2022/01/08 06:31:39;;;;;;;;;;;21.30;46.90;;;;;;5114393;28;20387;-55
2022/01/08 06:34:06;;;;;;;;;;;21.30;46.90;;;;;;5114373;28;19924;-51
2022/01/08 06:36:33;;;;;;;;;;;21.30;46.90;;;;;;5114549;28;20263;-54
2022/01/08 06:39:01;;;;;;;;;;;21.30;46.90;;;;;;5113355;28;19939;-50
2022/01/08 06:41:29;;;;;;;;;;;21.30;46.90;;;;;;5114228;28;19927;-53
2022/01/08 06:43:56;;;;;;;;;;;21.30;46.90;;;;;;5114276;28;20409;-50
2022/01/08 06:46:24;;;;;;;;;;;21.30;47.50;;;;;;5114247;28;19970;-55
2022/01/08 06:48:51;;;;;;;;;;;21.30;46.90;;;;;;5114490;28;19928;-58
2022/01/08 06:51:18;;;;;;;;;;;21.30;46.90;;;;;;5114488;28;19923;-51
2022/01/08 06:53:45;;;;;;;;;;;21.30;46.90;;;;;;5113351;28;19938;-58
2022/01/08 06:56:12;;;;;;;;;;;21.30;46.90;;;;;;5114194;28;19931;-58
2022/01/08 06:58:41;;;;;;;;;;;21.30;46.90;;;;;;5114067;28;19928;-53
2022/01/08 07:01:08;;;;;;;;;;;21.30;46.90;;;;;;5115854;28;19924;-52
2022/01/08 07:03:36;;;;;;;;;;;21.30;46.90;;;;;;5118376;28;20026;-55
2022/01/08 07:06:03;;;;;;;;;;;21.30;46.90;;;;;;5118202;28;20332;-50
2022/01/08 07:08:30;;;;;;;;;;;21.30;46.90;;;;;;5118535;28;19931;-52
2022/01/08 07:10:58;;;;;;;;;;;21.30;46.90;;;;;;5117289;27;20275;-57
2022/01/08 07:13:25;;;;;;;;;;;21.30;46.90;;;;;;5118153;28;19924;-54
2022/01/08 07:15:52;;;;;;;;;;;21.30;46.90;;;;;;5118131;28;19969;-56
2022/01/08 07:18:19;;;;;;;;;;;21.30;46.90;;;;;;5117874;28;19928;-54
2022/01/08 07:20:46;;;;;;;;;;;21.30;46.90;;;;;;5099963;28;19924;-51
2022/01/08 07:23:13;;;;;;;;;;;21.30;46.80;;;;;;5117835;28;19930;-53
2022/01/08 07:25:40;;;;;;;;;;;21.30;46.80;;;;;;5116980;27;19984;-54
2022/01/08 07:28:06;;;;;;;;;;;21.30;46.80;;;;;;5118135;28;19947;-55
2022/01/08 07:30:33;;;;;;;;;;;21.30;46.80;;;;;;5118140;28;19927;-52
2022/01/08 07:33:00;;;;;;;;;;;21.30;46.80;;;;;;5118103;28;19923;-50
2022/01/08 07:35:28;;;;;;;;;;;21.30;46.80;;;;;;5117734;28;19975;-56
2022/01/08 07:37:55;;;;;;;;;;;21.30;46.80;;;;;;5117906;28;19924;-52
2022/01/08 07:40:22;;;;;;;;;;;21.30;46.80;;;;;;5125559;27;19923;-58
2022/01/08 07:42:49;;;;;;;;;;;21.30;46.80;;;;;;5138503;27;19927;-53
2022/01/08 07:45:17;;;;;;;;;;;21.30;46.80;;;;;;5138099;27;19923;-58
2022/01/08 07:47:45;;;;;;;;;;;21.30;46.80;;;;;;5138043;27;19923;-57
2022/01/08 07:50:13;;;;;;;;;;;21.30;46.80;;;;;;5137888;27;20379;-58
2022/01/08 07:52:40;;;;;;;;;;;21.30;46.80;;;;;;5137791;27;19923;-53
2022/01/08 07:55:07;;;;;;;;;;;21.30;46.80;;;;;;5129876;27;19930;-53
2022/01/08 07:57:34;;;;;;;;;;;21.30;46.80;;;;;;5117324;28;20412;-53
2022/01/08 08:00:02;;;;;;;;;;;21.30;46.70;;;;;;5117202;28;20019;-53
2022/01/08 08:02:29;;;;;;;;;;;21.30;46.70;;;;;;5118100;28;19932;-56
2022/01/08 08:04:56;;;;;;;;;;;21.30;46.70;;;;;;5117211;28;19930;-55
2022/01/08 08:07:31;;;;;;;;;;;21.30;46.70;;;;;;5117004;28;19924;-55
2022/01/08 08:09:58;;;;;;;;;;;21.30;46.70;;;;;;5115866;28;19927;-56
2022/01/08 08:12:25;;;;;;;;;;;21.30;46.70;;;;;;5116959;28;19931;-55
2022/01/08 08:14:53;;;;;;;;;;;21.30;46.70;;;;;;5117272;28;19923;-55
2022/01/08 08:17:20;;;;;;;;;;;21.30;46.70;;;;;;5116890;28;20405;-56
2022/01/08 08:19:47;;;;;;;;;;;21.30;46.70;;;;;;5116779;28;19924;-57
2022/01/08 08:22:14;;;;;;;;;;;21.30;46.60;;;;;;5116589;28;20371;-54
2022/01/08 08:24:41;;;;;;;;;;;21.30;46.60;;;;;;5116049;28;19973;-57
2022/01/08 08:27:09;;;;;;;;;;;21.30;46.60;;;;;;5116893;28;19924;-58
2022/01/08 08:29:38;;;;;;;;;;;21.30;46.60;;;;;;5116773;28;19924;-56
2022/01/08 08:32:05;;;;;;;;;;;21.30;46.60;;;;;;5116991;28;19924;-56
2022/01/08 08:34:32;;;;;;;;;;;21.30;46.60;;;;;;5116935;28;19974;-52
2022/01/08 08:36:59;;;;;;;;;;;21.30;46.60;;;;;;5116755;28;20313;-52
2022/01/08 08:39:27;;;;;;;;;;;21.30;46.50;;;;;;5116829;28;19924;-57
2022/01/08 08:41:54;;;;;;;;;;;21.30;46.50;;;;;;5115672;27;19923;-53
2022/01/08 08:44:21;;;;;;;;;;;21.30;46.50;;;;;;5098252;28;19930;-53
2022/01/08 08:46:48;;;;;;;;;;;21.40;46.50;;;;;;5116363;28;19924;-53
2022/01/08 08:49:15;;;;;;;;;;;21.40;46.40;;;;;;5116584;28;19930;-56
2022/01/08 08:51:42;;;;;;;;;;;21.40;46.40;;;;;;5116189;28;19924;-57
2022/01/08 08:54:09;;;;;;;;;;;21.40;46.40;;;;;;5098272;28;19924;-49
2022/01/08 08:56:38;;;;;;;;;;;21.40;46.30;;;;;;5115253;28;20264;-58
2022/01/08 08:59:05;;;;;;;;;;;21.40;46.30;;;;;;5116175;28;19953;-52
2022/01/08 09:01:32;;;;;;;;;;;21.40;46.20;;;;;;5098316;28;19930;-59
2022/01/08 09:03:59;;;;;;;;;;;21.50;46.30;;;;;;5116352;28;19924;-56
2022/01/08 09:06:26;;;;;;;;;;;21.50;46.20;;;;;;5116202;28;19930;-50
2022/01/08 09:08:54;;;;;;;;;;;21.50;46.20;;;;;;5115913;28;19930;-57
2022/01/08 09:11:21;;;;;;;;;;;21.50;46.20;;;;;;5114683;28;20441;-52
2022/01/08 09:13:48;;;;;;;;;;;21.50;46.10;;;;;;5116165;28;19930;-51
2022/01/08 09:16:16;;;;;;;;;;;21.50;46.10;;;;;;5115819;28;19931;-52
2022/01/08 09:18:44;;;;;;;;;;;21.50;46.00;;;;;;5115731;28;19923;-54
2022/01/08 09:21:11;;;;;;;;;;;21.50;46.00;;;;;;5115613;28;19928;-56
2022/01/08 09:23:38;;;;;;;;;;;21.60;46.00;;;;;;5114929;28;19923;-49
2022/01/08 09:26:06;;;;;;;;;;;21.60;45.90;;;;;;5096675;28;19973;-55
2022/01/08 09:28:33;;;;;;;;;;;21.60;46.50;;;;;;5115883;28;20022;-57
2022/01/08 09:31:01;;;;;;;;;;;21.60;45.80;;;;;;5115832;28;19953;-55
2022/01/08 09:33:29;;;;;;;;;;;21.60;45.80;;;;;;5115819;28;20272;-50
2022/01/08 09:35:56;;;;;;;;;;;21.70;45.80;;;;;;5115567;28;19923;-57
2022/01/08 09:38:23;;;;;;;;;;;21.70;45.80;;;;;;5116238;28;20348;-52
2022/01/08 09:40:50;;;;;;;;;;;21.70;45.70;;;;;;5096109;28;20220;-47
2022/01/08 09:43:18;;;;;;;;;;;21.70;45.60;;;;;;5097063;28;19931;-47
2022/01/08 09:45:45;;;;;;;;;;;21.70;45.60;;;;;;5115079;28;19924;-57
2022/01/08 09:48:12;;;;;;;;;;;21.70;45.60;;;;;;5115472;28;19928;-55
2022/01/08 09:50:41;;;;;;;;;;;21.70;45.60;;;;;;5115453;28;19931;-55
2022/01/08 09:53:08;;;;;;;;;;;21.80;45.60;;;;;;5114890;28;20015;-52
2022/01/08 09:55:36;;;;;;;;;;;21.80;45.60;;;;;;5114968;28;20387;-52
2022/01/08 09:58:03;;;;;;;;;;;21.80;45.50;;;;;;5114407;28;19924;-49
2022/01/08 10:00:31;;;;;;;;;;;21.80;45.50;;;;;;5096907;28;19972;-54
2022/01/08 10:03:17;;;;;;;;;;;21.80;45.40;;;;;;5119981;27;19962;-56
2022/01/08 10:05:54;;;;;;;;;;;21.80;45.40;;;;;;5116958;27;19928;-51
2022/01/08 10:08:42;;;;;;;;;;;21.80;45.40;;;;;;5129124;27;19927;-56
2022/01/08 10:11:13;;;;;;;;;;;21.80;45.40;;;;;;5111656;27;19961;-47
2022/01/08 10:13:47;;;;;;;;;;;21.80;45.40;;;;;;5119614;27;19967;-48
2022/01/08 10:19:25;;;;;;;;;;;21.90;45.70;;;;;;5114469;27;19924;-58
2022/01/08 10:21:59;;;;;;;;;;;21.90;45.60;;;;;;5118990;27;19924;-62
2022/01/08 10:24:32;;;;;;;;;;;21.90;45.60;;;;;;5114010;27;19930;-49
2022/01/08 10:27:09;;;;;;;;;;;21.90;45.60;;;;;;5113648;27;19924;-47
2022/01/08 10:29:54;;;;;;;;;;;21.90;45.60;;;;;;5114046;28;19924;-43
2022/01/08 10:32:27;;;;;;;;;;;21.90;45.60;;;;;;5115700;27;19930;-60
2022/01/08 10:34:58;;;;;;;;;;;22.00;45.70;;;;;;5121045;27;20006;-45
2022/01/08 10:37:53;;;;;;;;;;;22.00;45.80;;;;;;5120081;27;20298;-42
2022/01/08 10:40:34;;;;;;;;;;;22.00;45.70;;;;;;5118470;27;19970;-45
2022/01/08 10:43:01;;;;;;;;;;;22.00;45.60;;;;;;5114129;28;19928;-48
2022/01/08 10:45:34;;;;;;;;;;;22.00;45.50;;;;;;5123780;27;19930;-44
2022/01/08 10:48:03;;;;;;;;;;;22.00;45.70;;;;;;5125943;27;19962;-43
2022/01/08 10:50:34;;;;;;;;;;;22.00;45.70;;;;;;5119672;27;19924;-44
2022/01/08 10:53:02;;;;;;;;;;;22.00;45.70;;;;;;5112700;28;19974;-44
2022/01/08 10:55:32;;;;;;;;;;;22.10;45.80;;;;;;5116086;28;19966;-50
2022/01/08 10:58:03;;;;;;;;;;;22.10;45.70;;;;;;5115023;28;19927;-51
2022/01/08 11:00:34;;;;;;;;;;;22.10;45.70;;;;;;5120117;28;20004;-49
2022/01/08 11:03:05;;;;;;;;;;;22.10;45.80;;;;;;5125897;28;19924;-46
2022/01/08 11:05:55;;;;;;;;;;;22.10;45.70;;;;;;5116020;28;19924;-47
2022/01/08 11:08:25;;;;;;;;;;;22.10;45.70;;;;;;5115157;28;20399;-50
2022/01/08 11:10:54;;;;;;;;;;;22.10;45.70;;;;;;5118124;28;19928;-52
2022/01/08 11:13:22;;;;;;;;;;;22.10;45.80;;;;;;5118986;28;19994;-45
2022/01/08 11:15:54;;;;;;;;;;;22.10;45.70;;;;;;5128076;28;20290;-51
2022/01/08 11:18:22;;;;;;;;;;;22.10;45.70;;;;;;5120426;28;19959;-49
2022/01/08 11:20:54;;;;;;;;;;;22.10;45.70;;;;;;5121144;28;19927;-46
2022/01/08 11:23:25;;;;;;;;;;;22.10;45.70;;;;;;5125877;28;19927;-46
2022/01/08 11:25:54;;;;;;;;;;;22.10;45.70;;;;;;5096997;28;19927;-44
2022/01/08 11:28:22;;;;;;;;;;;22.20;45.80;;;;;;5126714;28;19972;-43
2022/01/08 11:30:49;;;;;;;;;;;22.20;45.70;;;;;;5130326;28;19924;-43
2022/01/08 11:33:30;;;;;;;;;;;22.20;45.70;;;;;;5116235;28;19923;-43
2022/01/08 11:35:58;;;;;;;;;;;22.20;45.70;;;;;;5127560;28;20023;-45
2022/01/08 11:38:27;;;;;;;;;;;22.20;45.60;;;;;;5117408;28;19924;-43
2022/01/08 11:40:56;;;;;;;;;;;22.20;45.60;;;;;;5114383;28;19981;-44
2022/01/08 11:43:24;;;;;;;;;;;22.20;45.60;;;;;;5122861;28;19972;-43
2022/01/08 11:45:56;;;;;;;;;;;22.20;45.50;;;;;;5096924;28;19924;-46
2022/01/08 11:48:25;;;;;;;;;;;22.20;45.60;;;;;;5124088;27;19927;-50
2022/01/08 11:50:56;;;;;;;;;;;22.30;45.70;;;;;;5120023;27;20286;-45
2022/01/08 11:53:24;;;;;;;;;;;22.20;45.50;;;;;;5132980;27;19969;-41
2022/01/08 11:55:53;;;;;;;;;;;22.30;45.50;;;;;;5121562;27;19927;-43
2022/01/08 11:58:20;;;;;;;;;;;22.30;45.60;;;;;;5128931;27;19973;-43
2022/01/08 12:00:48;;;;;;;;;;;22.30;45.50;;;;;;5123943;27;19923;-45
2022/01/08 12:03:21;;;;;;;;;;;22.30;45.40;;;;;;5117831;27;19923;-46
2022/01/08 12:05:49;;;;;;;;;;;22.30;45.30;;;;;;5118836;27;20329;-48
2022/01/08 12:08:18;;;;;;;;;;;22.30;45.30;;;;;;5126001;27;19931;-41
2022/01/08 12:10:57;;;;;;;;;;;22.30;45.30;;;;;;5125703;27;19924;-45
2022/01/08 12:13:42;;;;;;;;;;;22.40;45.40;;;;;;5125807;27;19924;-44
2022/01/08 12:16:28;;;;;;;;;;;22.40;45.30;;;;;;5103892;28;19923;-42
2022/01/08 12:18:56;;;;;;;;;;;22.30;45.20;;;;;;5115780;28;20329;-42
2022/01/08 12:21:31;;;;;;;;;;;22.40;45.30;;;;;;5118735;27;19924;-40
2022/01/08 12:23:59;;;;;;;;;;;22.40;45.30;;;;;;5130694;27;19931;-41
2022/01/08 12:26:26;;;;;;;;;;;22.40;45.90;;;;;;5117187;27;19924;-40
2022/01/08 12:28:58;;;;;;;;;;;22.40;45.30;;;;;;5118237;27;19977;-42
2022/01/08 12:31:31;;;;;;;;;;;22.30;45.20;;;;;;5099023;28;20414;-41
2022/01/08 12:34:16;;;;;;;;;;;22.30;45.20;;;;;;5120155;27;19924;-43
2022/01/08 12:36:54;;;;;;;;;;;22.40;45.30;;;;;;5121896;27;19967;-48
2022/01/08 12:39:39;;;;;;;;;;;22.30;45.20;;;;;;5116001;28;19928;-42
2022/01/08 12:42:21;;;;;;;;;;;22.30;45.30;;;;;;5117102;27;19924;-43
2022/01/08 12:44:59;;;;;;;;;;;22.30;45.30;;;;;;5116720;27;19931;-44
2022/01/08 12:47:39;;;;;;;;;;;22.30;45.30;;;;;;5116836;27;19969;-41
2022/01/08 12:50:19;;;;;;;;;;;22.30;45.40;;;;;;5116345;27;19923;-42
2022/01/08 12:53:05;;;;;;;;;;;22.30;45.30;;;;;;5115390;28;19924;-42
2022/01/08 12:55:36;;;;;;;;;;;22.30;45.30;;;;;;5133801;27;20270;-41
2022/01/08 12:58:14;;;;;;;;;;;22.30;45.40;;;;;;5132657;27;19924;-44
2022/01/08 13:00:53;;;;;;;;;;;22.30;45.30;;;;;;5116079;27;20390;-41
2022/01/08 13:03:23;;;;;;;;;;;22.30;45.30;;;;;;5115236;28;20018;-41
2022/01/08 13:05:51;;;;;;;;;;;22.30;45.40;;;;;;5134159;27;19978;-41
2022/01/08 13:08:22;;;;;;;;;;;22.30;45.40;;;;;;5116447;27;19923;-45
2022/01/08 13:10:54;;;;;;;;;;;22.30;45.40;;;;;;5116282;27;19927;-41
2022/01/08 13:13:21;;;;;;;;;;;22.30;45.40;;;;;;5115163;28;19927;-41
2022/01/08 13:15:48;;;;;;;;;;;22.30;45.40;;;;;;5099671;28;20043;-41
2022/01/08 13:18:17;;;;;;;;;;;22.30;45.40;;;;;;5096924;28;20357;-40
2022/01/08 13:20:43;;;;;;;;;;;22.30;45.50;;;;;;5115982;27;20052;-42
2022/01/08 13:23:12;;;;;;;;;;;22.30;45.50;;;;;;5097029;28;19950;-42
2022/01/08 13:25:39;;;;;;;;;;;22.30;45.50;;;;;;5117384;27;19924;-44
2022/01/08 13:28:06;;;;;;;;;;;22.30;45.50;;;;;;5114723;27;19924;-45
2022/01/08 13:30:36;;;;;;;;;;;22.30;45.50;;;;;;5117090;27;19923;-42
2022/01/08 13:33:04;;;;;;;;;;;22.30;45.60;;;;;;5115103;27;19927;-42
2022/01/08 13:35:31;;;;;;;;;;;22.30;45.60;;;;;;5114924;28;19927;-40
2022/01/08 13:37:58;;;;;;;;;;;22.30;45.60;;;;;;5114826;28;19955;-41
2022/01/08 13:40:26;;;;;;;;;;;22.30;45.70;;;;;;5116833;27;19923;-42
2022/01/08 13:42:53;;;;;;;;;;;22.30;45.70;;;;;;5114291;28;19958;-42
2022/01/08 13:45:21;;;;;;;;;;;22.30;45.70;;;;;;5120392;27;19923;-43
2022/01/08 13:47:53;;;;;;;;;;;22.30;45.70;;;;;;5128568;27;19957;-42
2022/01/08 13:50:35;;;;;;;;;;;22.20;45.70;;;;;;5120028;27;19923;-41
2022/01/08 13:53:02;;;;;;;;;;;22.30;45.80;;;;;;5127491;27;20022;-40
2022/01/08 13:55:48;;;;;;;;;;;22.30;45.80;;;;;;5117092;27;19924;-42
2022/01/08 13:58:16;;;;;;;;;;;22.30;45.90;;;;;;5116554;27;20443;-40
2022/01/08 14:00:48;;;;;;;;;;;22.30;45.90;;;;;;5113829;28;19929;-46
2022/01/08 14:03:26;;;;;;;;;;;22.30;45.90;;;;;;5114988;27;19924;-45
2022/01/08 14:05:55;;;;;;;;;;;22.30;45.80;;;;;;5114758;27;19928;-42
2022/01/08 14:08:23;;;;;;;;;;;22.30;45.90;;;;;;5114774;27;20268;-47
2022/01/08 14:10:51;;;;;;;;;;;22.30;45.90;;;;;;5113946;28;19947;-46
2022/01/08 14:13:23;;;;;;;;;;;22.30;45.90;;;;;;5115929;27;19923;-41
2022/01/08 14:16:20;;;;;;;;;;;22.30;45.90;;;;;;5115811;27;20047;-45
2022/01/08 14:18:49;;;;;;;;;;;22.30;45.90;;;;;;5097586;27;20291;-44
2022/01/08 14:21:18;;;;;;;;;;;22.30;45.90;;;;;;5117364;27;20294;-46
2022/01/08 14:23:46;;;;;;;;;;;22.30;46.00;;;;;;5114620;27;19924;-43
2022/01/08 14:26:14;;;;;;;;;;;22.30;46.00;;;;;;5116926;27;19931;-46
2022/01/08 14:28:41;;;;;;;;;;;22.30;46.00;;;;;;5113508;28;19977;-41
2022/01/08 14:31:17;;;;;;;;;;;22.30;46.10;;;;;;5113735;28;20032;-42
2022/01/08 14:34:01;;;;;;;;;;;22.30;46.10;;;;;;5117341;27;20022;-41
2022/01/08 14:36:45;;;;;;;;;;;22.30;46.10;;;;;;5127550;27;19924;-48
2022/01/08 14:39:14;;;;;;;;;;;22.30;46.10;;;;;;5113352;28;19923;-42
2022/01/08 14:41:42;;;;;;;;;;;22.30;46.10;;;;;;5114710;28;19924;-41
2022/01/08 14:44:09;;;;;;;;;;;22.30;46.20;;;;;;5113223;28;19963;-45
2022/01/08 14:46:45;;;;;;;;;;;22.30;46.20;;;;;;5116488;28;19980;-43
2022/01/08 14:49:12;;;;;;;;;;;22.30;46.20;;;;;;5127307;27;20298;-44
2022/01/08 14:51:39;;;;;;;;;;;22.30;46.20;;;;;;5113470;28;20295;-45
2022/01/08 14:54:08;;;;;;;;;;;22.30;46.20;;;;;;5113066;28;19924;-43